createdAt,value
2024-03-10T00:01:11.824Z,90426.78
2024-03-10T00:03:41.820Z,90425.66
2024-03-10T00:06:10.601Z,90426.50
2024-03-10T00:08:39.126Z,90428.53
2024-03-10T00:11:07.889Z,90429.47
2024-03-10T00:13:36.777Z,90432.34
2024-03-10T00:16:05.977Z,90425.47
2024-03-10T00:18:36.252Z,90425.63
2024-03-10T00:21:05.095Z,90422.41
2024-03-10T00:23:34.195Z,90416.47
2024-03-10T00:26:07.407Z,90405.56
2024-03-10T00:28:36.448Z,90406.25
2024-03-10T00:31:05.337Z,90402.13
2024-03-10T00:33:35.241Z,90406.34
2024-03-10T00:36:03.775Z,90397.41
2024-03-10T00:38:32.252Z,90401.72
2024-03-10T00:41:01.248Z,90390.44
2024-03-10T00:43:30.130Z,90392.84
2024-03-10T00:45:58.747Z,90385.78
2024-03-10T00:48:27.420Z,90399.75
2024-03-10T00:50:57.293Z,90390.34
2024-03-10T00:53:25.816Z,90391.03
2024-03-10T00:55:54.353Z,90387.31
2024-03-10T00:58:23.340Z,90381.91
2024-03-10T01:00:51.820Z,90389.25
2024-03-10T01:03:20.460Z,90380.16
2024-03-10T01:05:48.989Z,90387.19
2024-03-10T01:08:18.917Z,90389.03
2024-03-10T01:10:48.248Z,90398.31
2024-03-10T01:13:17.645Z,90399.97
2024-03-10T01:15:46.670Z,90399.47
2024-03-10T01:18:16.001Z,90398.38
2024-03-10T01:20:43.706Z,90395.06
2024-03-10T01:23:12.524Z,90388.34
2024-03-10T01:25:43.296Z,90380.09
2024-03-10T01:28:12.936Z,90372.22
2024-03-10T01:30:41.396Z,90372.63
2024-03-10T01:33:09.976Z,90351.78
2024-03-10T01:35:41.196Z,90335.13
2024-03-10T01:38:10.045Z,90336.19
2024-03-10T01:40:38.605Z,90337.53
2024-03-10T01:43:08.951Z,90331.19
2024-03-10T01:45:37.703Z,90334.00
2024-03-10T01:48:07.311Z,90331.06
2024-03-10T01:50:35.875Z,90330.09
2024-03-10T01:53:04.718Z,90324.66
2024-03-10T01:55:33.314Z,90317.25
2024-03-10T01:58:02.095Z,90304.75
2024-03-10T02:00:32.872Z,90297.03
2024-03-10T02:03:01.374Z,90304.94
2024-03-10T02:05:30.765Z,90304.06
2024-03-10T02:07:59.447Z,90302.38
2024-03-10T02:10:28.268Z,90308.00
2024-03-10T02:12:56.804Z,90302.34
2024-03-10T02:15:25.781Z,90279.84
2024-03-10T02:17:55.813Z,90286.91
2024-03-10T02:20:44.851Z,90288.78
2024-03-10T02:23:41.584Z,90286.34
2024-03-10T02:26:33.891Z,90280.41
2024-03-10T02:29:22.653Z,90271.34
2024-03-10T02:32:27.554Z,90270.44
2024-03-10T02:35:28.830Z,90282.59
2024-03-10T02:38:33.457Z,90266.28
2024-03-10T02:41:38.126Z,90264.66
2024-03-10T02:44:43.880Z,90252.38
2024-03-10T02:47:30.896Z,90245.00
2024-03-10T02:50:18.324Z,90243.59
2024-03-10T02:53:07.084Z,90232.88
2024-03-10T02:55:55.056Z,90249.38
2024-03-10T02:58:42.717Z,90251.00
2024-03-10T03:01:31.537Z,90250.69
2024-03-10T03:04:19.000Z,90233.84
2024-03-10T03:07:07.905Z,90216.66
2024-03-10T03:09:54.773Z,90222.22
2024-03-10T03:12:43.596Z,90220.25
2024-03-10T03:15:30.750Z,90215.94
2024-03-10T03:18:19.581Z,90211.72
2024-03-10T03:21:06.883Z,90201.91
2024-03-10T03:23:54.918Z,90193.50
2024-03-10T03:26:41.909Z,90190.06
2024-03-10T03:29:29.277Z,90179.91
2024-03-10T03:32:16.984Z,90163.25
2024-03-10T03:35:06.184Z,90160.00
2024-03-10T03:37:53.354Z,90145.03
2024-03-10T03:40:40.916Z,90135.53
2024-03-10T03:43:28.124Z,90122.41
2024-03-10T03:46:15.208Z,90111.22
2024-03-10T03:49:02.641Z,90112.72
2024-03-10T03:51:51.215Z,90095.41
2024-03-10T03:54:40.810Z,90109.28
2024-03-10T03:57:27.904Z,90140.88
2024-03-10T04:00:17.344Z,90142.44
2024-03-10T04:03:04.966Z,90138.31
2024-03-10T04:05:53.883Z,90143.34
2024-03-10T04:08:42.138Z,90139.34
2024-03-10T04:11:29.576Z,90139.72
2024-03-10T04:14:16.904Z,90150.50
2024-03-10T04:17:03.839Z,90165.34
2024-03-10T04:19:50.904Z,90167.41
2024-03-10T04:22:39.442Z,90170.63
2024-03-10T04:25:28.214Z,90190.63
2024-03-10T04:28:15.190Z,90186.47
2024-03-10T04:31:02.512Z,90178.00
2024-03-10T04:33:49.929Z,90177.84
2024-03-10T04:36:36.846Z,90192.81
2024-03-10T04:39:25.222Z,90200.59
2024-03-10T04:42:13.673Z,90174.44
2024-03-10T04:45:00.829Z,90165.53
2024-03-10T04:47:29.656Z,90163.78
2024-03-10T04:49:58.189Z,90151.97
2024-03-10T04:52:27.080Z,90157.56
2024-03-10T04:54:55.537Z,90148.50
2024-03-10T04:57:26.171Z,90129.41
2024-03-10T04:59:54.966Z,90136.53
2024-03-10T05:02:23.752Z,90134.22
2024-03-10T05:04:52.448Z,90131.38
2024-03-10T05:07:21.204Z,90129.59
2024-03-10T05:09:49.809Z,90133.94
2024-03-10T05:12:18.404Z,90139.06
2024-03-10T05:14:48.441Z,90130.72
2024-03-10T05:17:16.913Z,90132.66
2024-03-10T05:19:46.357Z,90145.66
2024-03-10T05:22:15.224Z,90153.56
2024-03-10T05:24:45.423Z,90157.81
2024-03-10T05:27:17.125Z,90165.91
2024-03-10T05:29:47.137Z,90160.72
2024-03-10T05:32:15.650Z,90150.47
2024-03-10T05:34:44.138Z,90136.72
2024-03-10T05:37:12.606Z,90148.84
2024-03-10T05:39:41.127Z,90180.03
2024-03-10T05:42:09.623Z,90182.22
2024-03-10T05:44:38.152Z,90171.91
2024-03-10T05:47:08.458Z,90169.09
2024-03-10T05:49:36.942Z,90172.94
2024-03-10T05:52:06.532Z,90166.34
2024-03-10T05:54:35.012Z,90160.28
2024-03-10T05:57:03.879Z,90147.53
2024-03-10T05:59:32.962Z,90141.34
2024-03-10T06:02:01.500Z,90132.50
2024-03-10T06:04:32.124Z,90139.34
2024-03-10T06:07:00.767Z,90147.22
2024-03-10T06:09:35.592Z,90154.63
2024-03-10T06:12:04.514Z,90129.97
2024-03-10T06:14:33.560Z,90136.31
2024-03-10T06:17:02.391Z,90126.16
2024-03-10T06:19:49.732Z,90122.13
2024-03-10T06:22:35.572Z,90120.47
2024-03-10T06:25:33.077Z,90121.41
2024-03-10T06:28:01.528Z,90121.97
2024-03-10T06:30:30.007Z,90121.13
2024-03-10T06:32:59.069Z,90113.81
2024-03-10T06:35:29.901Z,90101.25
2024-03-10T06:37:58.725Z,90103.66
2024-03-10T06:40:28.175Z,90111.34
2024-03-10T06:42:56.824Z,90107.97
2024-03-10T06:45:27.098Z,90090.50
2024-03-10T06:47:55.903Z,90102.75
2024-03-10T06:50:24.407Z,90110.06
2024-03-10T06:52:54.465Z,90131.88
2024-03-10T06:55:23.246Z,90120.88
2024-03-10T06:57:51.980Z,90138.94
2024-03-10T07:00:26.070Z,90141.47
2024-03-10T07:02:54.800Z,90135.44
2024-03-10T07:05:23.381Z,90142.28
2024-03-10T07:07:53.776Z,90132.31
2024-03-10T07:10:22.421Z,90127.78
2024-03-10T07:12:51.212Z,90124.97
2024-03-10T07:15:19.760Z,90144.56
2024-03-10T07:17:48.339Z,90147.06
2024-03-10T07:20:17.152Z,90145.13
2024-03-10T07:22:45.845Z,90161.63
2024-03-10T07:25:16.423Z,90152.88
2024-03-10T07:27:45.594Z,90155.25
2024-03-10T07:30:15.505Z,90156.16
2024-03-10T07:32:44.474Z,90149.91
2024-03-10T07:35:13.885Z,90137.63
2024-03-10T07:37:43.692Z,90141.84
2024-03-10T07:40:18.430Z,90138.28
2024-03-10T07:42:49.132Z,90132.28
2024-03-10T07:45:19.514Z,90128.03
2024-03-10T07:47:50.665Z,90124.50
2024-03-10T07:50:20.677Z,90114.16
2024-03-10T07:52:49.489Z,90107.16
2024-03-10T07:55:19.086Z,90110.59
2024-03-10T07:57:49.338Z,90112.09
2024-03-10T08:00:23.224Z,90113.88
2024-03-10T08:02:53.642Z,90118.41
2024-03-10T08:05:22.439Z,90130.28
2024-03-10T08:07:51.472Z,90138.09
2024-03-10T08:10:20.784Z,90135.47
2024-03-10T08:12:51.100Z,90135.03
2024-03-10T08:15:20.051Z,90138.59
2024-03-10T08:17:48.787Z,90153.44
2024-03-10T08:20:18.796Z,90153.13
2024-03-10T08:22:48.051Z,90165.16
2024-03-10T08:25:18.555Z,90176.03
2024-03-10T08:27:50.957Z,90183.25
2024-03-10T08:30:21.880Z,90169.00
2024-03-10T08:32:50.751Z,90166.25
2024-03-10T08:35:21.868Z,90164.16
2024-03-10T08:37:50.950Z,90177.59
2024-03-10T08:40:20.074Z,90174.53
2024-03-10T08:42:48.907Z,90175.63
2024-03-10T08:45:19.389Z,90173.00
2024-03-10T08:47:50.703Z,90167.47
2024-03-10T08:50:19.714Z,90158.72
2024-03-10T08:52:49.005Z,90141.50
2024-03-10T08:55:20.063Z,90143.31
2024-03-10T08:57:48.680Z,90144.00
2024-03-10T09:00:19.036Z,90157.69
2024-03-10T09:02:50.615Z,90156.38
2024-03-10T09:05:20.771Z,90159.72
2024-03-10T09:07:51.035Z,90166.28
2024-03-10T09:10:24.801Z,90176.91
2024-03-10T09:12:53.559Z,90164.22
2024-03-10T09:15:22.558Z,90147.91
2024-03-10T09:17:53.539Z,90155.97
2024-03-10T09:20:22.538Z,90150.97
2024-03-10T09:22:53.377Z,90148.97
2024-03-10T09:25:23.913Z,90155.31
2024-03-10T09:27:55.173Z,90161.28
2024-03-10T09:30:25.979Z,90168.88
2024-03-10T09:32:58.410Z,90169.41
2024-03-10T09:35:29.690Z,90160.69
2024-03-10T09:38:01.994Z,90150.75
2024-03-10T09:40:33.485Z,90137.41
2024-03-10T09:43:06.720Z,90140.44
2024-03-10T09:45:40.345Z,90145.19
2024-03-10T09:48:11.256Z,90151.28
2024-03-10T09:50:47.965Z,90147.41
2024-03-10T09:53:18.767Z,90157.09
2024-03-10T09:55:50.032Z,90150.66
2024-03-10T09:58:30.080Z,90176.53
2024-03-10T10:01:14.252Z,90168.38
2024-03-10T10:03:46.561Z,90160.00
2024-03-10T10:06:18.090Z,90145.41
2024-03-10T10:08:46.998Z,90134.44
2024-03-10T10:11:15.566Z,90142.53
2024-03-10T10:13:44.695Z,90134.69
2024-03-10T10:16:13.190Z,90147.53
2024-03-10T10:18:51.399Z,90147.31
2024-03-10T10:21:26.211Z,90148.03
2024-03-10T10:23:55.409Z,90152.28
2024-03-10T10:26:24.061Z,90146.19
2024-03-10T10:29:08.734Z,90140.38
2024-03-10T10:31:38.892Z,90132.06
2024-03-10T10:34:16.216Z,90137.34
2024-03-10T10:36:46.259Z,90134.78
2024-03-10T10:39:19.117Z,90149.19
2024-03-10T10:41:47.642Z,90147.56
2024-03-10T10:44:16.735Z,90163.59
2024-03-10T10:46:46.449Z,90154.34
2024-03-10T10:49:18.145Z,90159.06
2024-03-10T10:51:48.759Z,90163.78
2024-03-10T10:54:17.305Z,90157.94
2024-03-10T10:56:46.483Z,90168.91
2024-03-10T10:59:15.779Z,90182.41
2024-03-10T11:01:47.098Z,90190.22
2024-03-10T11:04:26.200Z,90181.38
2024-03-10T11:06:57.083Z,90175.53
2024-03-10T11:09:32.315Z,90183.19
2024-03-10T11:12:01.141Z,90189.38
2024-03-10T11:14:30.306Z,90185.72
2024-03-10T11:17:17.453Z,90182.94
2024-03-10T11:19:49.023Z,90181.03
2024-03-10T11:22:21.766Z,90184.03
2024-03-10T11:25:18.508Z,90185.97
2024-03-10T11:27:48.069Z,90173.03
2024-03-10T11:30:50.587Z,90176.81
2024-03-10T11:33:25.932Z,90204.28
2024-03-10T11:35:58.737Z,90200.94
2024-03-10T11:38:27.773Z,90191.22
2024-03-10T11:41:09.949Z,90199.44
2024-03-10T11:43:38.943Z,90198.84
2024-03-10T11:46:22.533Z,90192.84
2024-03-10T11:48:53.581Z,90199.41
2024-03-10T11:51:24.572Z,90206.47
2024-03-10T11:53:53.441Z,90194.84
2024-03-10T11:56:22.498Z,90194.84
2024-03-10T11:58:52.645Z,90200.81
2024-03-10T12:01:22.436Z,90202.34
2024-03-10T12:03:52.148Z,90212.84
2024-03-10T12:06:20.750Z,90219.63
2024-03-10T12:08:51.752Z,90206.44
2024-03-10T12:11:25.984Z,90212.16
2024-03-10T12:13:55.336Z,90213.03
2024-03-10T12:16:24.336Z,90215.78
2024-03-10T12:18:52.838Z,90211.81
2024-03-10T12:21:29.011Z,90221.28
2024-03-10T12:24:01.802Z,90214.97
2024-03-10T12:26:33.593Z,90218.16
2024-03-10T12:29:02.284Z,90219.16
2024-03-10T12:31:31.377Z,90222.97
2024-03-10T12:33:59.861Z,90242.94
2024-03-10T12:36:28.886Z,90243.25
2024-03-10T12:38:58.748Z,90234.94
2024-03-10T12:41:28.095Z,90244.94
2024-03-10T12:43:58.544Z,90250.66
2024-03-10T12:46:27.070Z,90268.81
2024-03-10T12:48:55.586Z,90267.56
2024-03-10T12:51:25.490Z,90276.28
2024-03-10T12:53:57.664Z,90279.53
2024-03-10T12:56:28.026Z,90280.03
2024-03-10T12:58:57.105Z,90294.13
2024-03-10T13:01:26.178Z,90297.34
2024-03-10T13:03:54.727Z,90297.63
2024-03-10T13:06:23.232Z,90299.81
2024-03-10T13:08:51.772Z,90302.81
2024-03-10T13:11:26.102Z,90302.22
2024-03-10T13:13:59.113Z,90311.25
2024-03-10T13:16:29.105Z,90319.94
2024-03-10T13:18:59.708Z,90329.28
2024-03-10T13:21:28.315Z,90342.16
2024-03-10T13:23:58.937Z,90337.25
2024-03-10T13:26:27.548Z,90333.94
2024-03-10T13:28:57.683Z,90340.38
2024-03-10T13:31:26.186Z,90341.47
2024-03-10T13:33:54.945Z,90336.84
2024-03-10T13:36:23.694Z,90349.97
2024-03-10T13:38:52.215Z,90354.06
2024-03-10T13:41:22.419Z,90350.19
2024-03-10T13:43:50.929Z,90347.72
2024-03-10T13:46:20.807Z,90352.59
2024-03-10T13:48:50.457Z,90357.22
2024-03-10T13:51:19.801Z,90362.03
2024-03-10T13:53:48.318Z,90361.34
2024-03-10T13:56:17.948Z,90355.50
2024-03-10T13:58:47.490Z,90359.91
2024-03-10T14:01:16.512Z,90354.25
2024-03-10T14:03:46.553Z,90349.72
2024-03-10T14:06:15.140Z,90344.16
2024-03-10T14:08:44.190Z,90348.78
2024-03-10T14:11:14.778Z,90345.09
2024-03-10T14:13:43.371Z,90348.59
2024-03-10T14:16:12.841Z,90344.06
2024-03-10T14:18:41.296Z,90333.38
2024-03-10T14:21:11.367Z,90334.88
2024-03-10T14:23:40.600Z,90327.25
2024-03-10T14:26:09.515Z,90327.84
2024-03-10T14:28:39.213Z,90327.84
2024-03-10T14:31:08.675Z,90322.28
2024-03-10T14:33:39.551Z,90319.41
2024-03-10T14:36:10.607Z,90326.84
2024-03-10T14:38:39.976Z,90323.94
2024-03-10T14:41:08.972Z,90315.75
2024-03-10T14:43:37.740Z,90316.72
2024-03-10T14:46:06.833Z,90317.91
2024-03-10T14:48:35.655Z,90314.13
2024-03-10T14:51:04.547Z,90315.72
2024-03-10T14:53:34.443Z,90310.34
2024-03-10T14:56:03.232Z,90311.00
2024-03-10T14:58:31.707Z,90321.06
2024-03-10T15:01:03.722Z,90317.31
2024-03-10T15:03:37.554Z,90315.50
2024-03-10T15:06:06.956Z,90323.75
2024-03-10T15:08:38.349Z,90317.72
2024-03-10T15:11:10.263Z,90330.31
2024-03-10T15:13:38.851Z,90329.34
2024-03-10T15:16:08.772Z,90330.56
2024-03-10T15:18:39.231Z,90329.22
2024-03-10T15:21:07.859Z,90338.94
2024-03-10T15:23:37.758Z,90333.75
2024-03-10T15:26:06.851Z,90338.78
2024-03-10T15:28:38.394Z,90344.31
2024-03-10T15:31:07.407Z,90346.50
2024-03-10T15:33:36.472Z,90349.00
2024-03-10T15:36:05.757Z,90356.06
2024-03-10T15:38:34.268Z,90360.78
2024-03-10T15:41:05.709Z,90363.03
2024-03-10T15:43:35.917Z,90370.16
2024-03-10T15:46:04.556Z,90373.16
2024-03-10T15:48:33.925Z,90373.25
2024-03-10T15:51:02.712Z,90380.03
2024-03-10T15:53:31.188Z,90383.66
2024-03-10T15:55:59.700Z,90382.00
2024-03-10T15:58:29.559Z,90389.81
2024-03-10T16:00:58.661Z,90395.09
2024-03-10T16:03:36.798Z,90395.19
2024-03-10T16:06:08.057Z,90398.09
2024-03-10T16:08:37.555Z,90401.44
2024-03-10T16:11:06.656Z,90409.81
2024-03-10T16:13:45.005Z,90405.31
2024-03-10T16:16:14.400Z,90423.56
2024-03-10T16:18:43.095Z,90413.75
2024-03-10T16:21:18.326Z,90421.00
2024-03-10T16:23:46.854Z,90437.34
2024-03-10T16:26:19.486Z,90430.28
2024-03-10T16:28:49.607Z,90437.13
2024-03-10T16:31:19.301Z,90446.47
2024-03-10T16:33:48.039Z,90458.88
2024-03-10T16:36:16.542Z,90463.47
2024-03-10T16:38:45.606Z,90458.09
2024-03-10T16:41:14.614Z,90473.94
2024-03-10T16:43:43.090Z,90473.13
2024-03-10T16:46:13.222Z,90471.44
2024-03-10T16:48:42.266Z,90472.66
2024-03-10T16:51:11.280Z,90486.78
2024-03-10T16:53:40.295Z,90484.00
2024-03-10T16:56:10.824Z,90486.84
2024-03-10T16:58:42.359Z,90492.44
2024-03-10T17:01:12.291Z,90497.25
2024-03-10T17:03:42.038Z,90504.63
2024-03-10T17:06:11.351Z,90510.41
2024-03-10T17:08:41.258Z,90514.28
2024-03-10T17:11:10.394Z,90509.69
2024-03-10T17:13:39.137Z,90513.63
2024-03-10T17:16:08.862Z,90525.91
2024-03-10T17:18:38.763Z,90525.56
2024-03-10T17:21:07.661Z,90528.06
2024-03-10T17:23:36.597Z,90532.88
2024-03-10T17:26:05.591Z,90531.66
2024-03-10T17:28:35.008Z,90544.44
2024-03-10T17:31:03.827Z,90548.03
2024-03-10T17:33:32.392Z,90549.38
2024-03-10T17:36:02.544Z,90551.66
2024-03-10T17:38:31.059Z,90550.59
2024-03-10T17:40:59.817Z,90557.31
2024-03-10T17:43:29.503Z,90554.72
2024-03-10T17:45:58.007Z,90564.09
2024-03-10T17:48:26.832Z,90568.75
2024-03-10T17:50:55.293Z,90572.59
2024-03-10T17:53:25.375Z,90567.38
2024-03-10T17:55:53.856Z,90576.78
2024-03-10T17:58:22.613Z,90572.16
2024-03-10T18:00:51.339Z,90584.25
2024-03-10T18:03:20.137Z,90600.44
2024-03-10T18:05:49.657Z,90594.81
2024-03-10T18:08:18.291Z,90605.97
2024-03-10T18:10:49.288Z,90615.69
2024-03-10T18:13:18.595Z,90607.06
2024-03-10T18:15:50.108Z,90614.22
2024-03-10T18:18:18.944Z,90616.63
2024-03-10T18:20:47.612Z,90626.13
2024-03-10T18:23:19.167Z,90619.34
2024-03-10T18:25:49.255Z,90613.84
2024-03-10T18:28:18.167Z,90617.81
2024-03-10T18:30:46.978Z,90620.63
2024-03-10T18:33:16.741Z,90619.56
2024-03-10T18:35:47.264Z,90623.38
2024-03-10T18:38:17.566Z,90619.63
2024-03-10T18:40:52.487Z,90619.44
2024-03-10T18:43:21.266Z,90624.50
2024-03-10T18:45:51.171Z,90620.97
2024-03-10T18:48:20.276Z,90628.22
2024-03-10T18:50:54.558Z,90624.13
2024-03-10T18:53:31.480Z,90633.09
2024-03-10T18:56:05.065Z,90622.78
2024-03-10T18:58:36.459Z,90631.00
2024-03-10T19:01:06.574Z,90636.88
2024-03-10T19:03:35.236Z,90640.28
2024-03-10T19:06:03.948Z,90643.28
2024-03-10T19:08:32.441Z,90637.94
2024-03-10T19:11:03.423Z,90644.00
2024-03-10T19:13:32.037Z,90641.03
2024-03-10T19:16:01.324Z,90645.81
2024-03-10T19:18:29.819Z,90647.69
2024-03-10T19:20:58.922Z,90639.44
2024-03-10T19:23:27.856Z,90649.19
2024-03-10T19:25:58.454Z,90646.97
2024-03-10T19:28:28.678Z,90646.34
2024-03-10T19:30:59.028Z,90644.72
2024-03-10T19:33:27.496Z,90646.13
2024-03-10T19:35:56.510Z,90650.28
2024-03-10T19:38:25.237Z,90646.34
2024-03-10T19:40:54.787Z,90654.63
2024-03-10T19:43:23.926Z,90664.38
2024-03-10T19:45:53.941Z,90660.59
2024-03-10T19:48:25.285Z,90662.72
2024-03-10T19:50:54.826Z,90660.03
2024-03-10T19:53:24.908Z,90659.31
2024-03-10T19:55:55.967Z,90664.06
2024-03-10T19:58:25.170Z,90670.22
2024-03-10T20:00:55.114Z,90668.25
2024-03-10T20:03:23.925Z,90670.97
2024-03-10T20:05:52.577Z,90682.28
2024-03-10T20:08:24.092Z,90679.47
2024-03-10T20:10:53.383Z,90689.00
2024-03-10T20:13:22.179Z,90690.84
2024-03-10T20:15:50.602Z,90694.84
2024-03-10T20:18:20.477Z,90696.63
2024-03-10T20:20:48.912Z,90694.28
2024-03-10T20:23:17.798Z,90688.97
2024-03-10T20:25:46.815Z,90698.22
2024-03-10T20:28:15.321Z,90697.97
2024-03-10T20:30:44.071Z,90703.25
2024-03-10T20:33:12.780Z,90702.81
2024-03-10T20:35:42.776Z,90710.63
2024-03-10T20:38:12.336Z,90714.28
2024-03-10T20:40:40.790Z,90718.88
2024-03-10T20:43:09.421Z,90718.69
2024-03-10T20:45:38.187Z,90716.00
2024-03-10T20:48:08.457Z,90718.81
2024-03-10T20:50:37.467Z,90718.59
2024-03-10T20:53:08.191Z,90722.38
2024-03-10T20:55:37.081Z,90710.84
2024-03-10T20:58:07.217Z,90713.66
2024-03-10T21:00:37.086Z,90722.69
2024-03-10T21:03:06.634Z,90725.44
2024-03-10T21:05:36.090Z,90725.66
2024-03-10T21:08:06.744Z,90728.81
2024-03-10T21:10:35.572Z,90731.38
2024-03-10T21:13:06.195Z,90733.97
2024-03-10T21:15:36.116Z,90734.41
2024-03-10T21:18:05.941Z,90734.63
2024-03-10T21:20:36.272Z,90736.53
2024-03-10T21:23:06.891Z,90734.81
2024-03-10T21:25:36.155Z,90736.53
2024-03-10T21:28:09.971Z,90735.25
2024-03-10T21:30:38.818Z,90737.63
2024-03-10T21:33:08.946Z,90738.84
2024-03-10T21:35:39.731Z,90737.81
2024-03-10T21:38:10.256Z,90735.16
2024-03-10T21:40:39.707Z,90734.38
2024-03-10T21:43:09.785Z,90737.84
2024-03-10T21:45:39.742Z,90738.84
2024-03-10T21:48:10.153Z,90748.00
2024-03-10T21:50:39.675Z,90749.59
2024-03-10T21:53:10.282Z,90755.81
2024-03-10T21:55:39.145Z,90755.91
2024-03-10T21:58:07.663Z,90758.53
2024-03-10T22:00:36.107Z,90758.16
2024-03-10T22:03:05.014Z,90761.03
2024-03-10T22:05:33.679Z,90761.78
2024-03-10T22:08:02.195Z,90766.28
2024-03-10T22:10:33.254Z,90761.19
2024-03-10T22:13:01.693Z,90770.34
2024-03-10T22:15:30.119Z,90771.34
2024-03-10T22:17:59.755Z,90779.91
2024-03-10T22:20:30.057Z,90779.28
2024-03-10T22:22:59.250Z,90782.25
2024-03-10T22:25:28.994Z,90788.81
2024-03-10T22:28:00.014Z,90779.88
2024-03-10T22:30:31.364Z,90790.81
2024-03-10T22:33:00.799Z,90790.53
2024-03-10T22:35:29.719Z,90797.22
2024-03-10T22:37:59.327Z,90798.88
2024-03-10T22:40:29.198Z,90801.44
2024-03-10T22:43:00.149Z,90797.56
2024-03-10T22:45:32.605Z,90799.00
2024-03-10T22:48:05.592Z,90794.19
2024-03-10T22:50:36.437Z,90804.44
2024-03-10T22:53:07.411Z,90799.28
2024-03-10T22:55:36.824Z,90796.91
2024-03-10T22:58:06.929Z,90800.69
2024-03-10T23:00:36.740Z,90802.81
2024-03-10T23:03:08.442Z,90807.16
2024-03-10T23:05:37.774Z,90813.78
2024-03-10T23:08:10.522Z,90813.66
2024-03-10T23:10:41.073Z,90805.78
2024-03-10T23:13:12.439Z,90806.97
2024-03-10T23:15:42.685Z,90816.13
2024-03-10T23:18:12.792Z,90824.59
2024-03-10T23:20:42.276Z,90819.59
2024-03-10T23:23:10.982Z,90822.75
2024-03-10T23:25:39.619Z,90829.94
2024-03-10T23:28:09.244Z,90835.00
2024-03-10T23:30:39.492Z,90829.53
2024-03-10T23:33:08.485Z,90837.69
2024-03-10T23:35:37.399Z,90838.53
2024-03-10T23:38:07.059Z,90846.16
2024-03-10T23:40:36.142Z,90845.03
2024-03-10T23:43:04.684Z,90849.56
2024-03-10T23:45:34.533Z,90831.78
2024-03-10T23:48:05.822Z,90853.19
2024-03-10T23:50:35.547Z,90854.31
2024-03-10T23:53:05.168Z,90856.28
2024-03-10T23:55:40.442Z,90857.19
2024-03-10T23:58:12.986Z,90863.78
